Time;durP1;ratioP1;P1;durP2;ratioP2;P2;SDS_P1;SDS_P2;PMS_P1;PMS_P2;Temp;Humidity;BMP_temperature;BMP_pressure;BME280_temperature;BME280_humidity;BME280_pressure;Samples;Min_cycle;Max_cycle;Signal;HPM_P1;HPM_P2
2024/01/17 00:00:21;;;;;;;3.83;2.03;;;;;;;;;;6330832;28;20735;-94
2024/01/17 00:03:21;;;;;;;2.87;1.70;;;;;;;;;;6349620;28;20047;-94
2024/01/17 00:06:21;;;;;;;3.60;1.83;;;;;;;;;;6340271;28;20043;-94
2024/01/17 00:09:22;;;;;;;2.63;1.47;;;;;;;;;;6306951;28;20027;-93
2024/01/17 00:12:22;;;;;;;2.17;1.40;;;;;;;;;;6316967;28;20023;-93
2024/01/17 00:15:23;;;;;;;3.00;1.20;;;;;;;;;;6335247;28;20059;-93
2024/01/17 00:18:23;;;;;;;3.30;1.70;;;;;;;;;;6352245;28;20031;-93
2024/01/17 00:21:23;;;;;;;1.93;1.17;;;;;;;;;;6348400;28;20028;-94
2024/01/17 00:24:27;;;;;;;2.00;0.87;;;;;;;;;;6335401;28;20019;-88
2024/01/17 00:27:27;;;;;;;3.20;1.42;;;;;;;;;;6335628;28;20475;-88
2024/01/17 00:30:28;;;;;;;4.00;1.50;;;;;;;;;;6353975;28;20020;-88
2024/01/17 00:33:28;;;;;;;2.03;1.27;;;;;;;;;;6329888;28;20645;-88
2024/01/17 00:36:29;;;;;;;2.47;1.20;;;;;;;;;;6328634;28;20110;-89
2024/01/17 00:39:29;;;;;;;2.73;1.27;;;;;;;;;;6326600;28;20448;-88
2024/01/17 00:42:30;;;;;;;2.47;1.17;;;;;;;;;;6319837;28;20055;-88
2024/01/17 00:45:30;;;;;;;3.10;1.53;;;;;;;;;;6352714;28;20035;-88
2024/01/17 00:48:33;;;;;;;2.10;1.40;;;;;;;;;;6344513;28;20471;-88
2024/01/17 00:51:34;;;;;;;3.33;1.50;;;;;;;;;;6352136;28;20020;-88
2024/01/17 00:54:34;;;;;;;2.15;1.38;;;;;;;;;;6317289;28;20055;-89
2024/01/17 00:57:35;;;;;;;3.17;1.50;;;;;;;;;;6322038;28;20036;-88
2024/01/17 01:00:35;;;;;;;3.17;1.70;;;;;;;;;;6325943;28;20074;-89
2024/01/17 01:03:36;;;;;;;3.50;1.67;;;;;;;;;;6326618;28;20023;-89
2024/01/17 01:06:36;;;;;;;3.13;1.60;;;;;;;;;;6317346;28;20052;-88
2024/01/17 01:09:37;;;;;;;3.10;1.73;;;;;;;;;;6318416;28;20389;-88
2024/01/17 01:12:37;;;;;;;3.27;1.50;;;;;;;;;;6307618;28;20077;-89
2024/01/17 01:15:38;;;;;;;2.90;1.83;;;;;;;;;;6327779;28;20020;-90
2024/01/17 01:18:38;;;;;;;2.97;1.70;;;;;;;;;;6311270;28;20024;-88
2024/01/17 01:21:38;;;;;;;3.00;1.70;;;;;;;;;;6306242;28;20477;-89
2024/01/17 01:24:39;;;;;;;2.13;1.53;;;;;;;;;;6322613;28;20532;-88
2024/01/17 01:27:39;;;;;;;2.17;1.40;;;;;;;;;;6322136;28;20493;-89
2024/01/17 01:30:40;;;;;;;3.00;1.50;;;;;;;;;;6323635;28;20505;-89
2024/01/17 01:33:42;;;;;;;3.57;1.67;;;;;;;;;;6309103;28;20020;-88
2024/01/17 01:36:43;;;;;;;5.38;1.65;;;;;;;;;;6316215;28;20074;-93
2024/01/17 01:39:46;;;;;;;1.30;0.83;;;;;;;;;;6315824;28;20023;-94
2024/01/17 01:42:47;;;;;;;2.03;1.45;;;;;;;;;;6302036;28;20358;-93
2024/01/17 01:46:07;;;;;;;2.97;1.37;;;;;;;;;;6308934;28;20031;-94
2024/01/17 01:49:13;;;;;;;3.05;1.30;;;;;;;;;;6308469;28;20167;-94
2024/01/17 01:52:14;;;;;;;3.72;1.73;;;;;;;;;;6318824;28;20020;-93
2024/01/17 01:55:14;;;;;;;2.63;1.47;;;;;;;;;;6314998;28;20503;-94
2024/01/17 01:58:15;;;;;;;2.00;1.57;;;;;;;;;;6308577;28;20480;-94
2024/01/17 02:01:16;;;;;;;2.93;1.73;;;;;;;;;;6303633;28;20025;-94
2024/01/17 02:04:17;;;;;;;3.73;1.67;;;;;;;;;;6300216;28;20069;-95
2024/01/17 02:07:19;;;;;;;3.25;1.67;;;;;;;;;;6301117;28;20076;-94
2024/01/17 02:10:19;;;;;;;2.80;1.42;;;;;;;;;;6316685;28;20037;-94
2024/01/17 02:13:20;;;;;;;3.05;1.80;;;;;;;;;;6311296;28;20028;-95
2024/01/17 02:16:20;;;;;;;2.47;1.60;;;;;;;;;;6318721;28;20447;-94
2024/01/17 02:19:26;;;;;;;3.33;1.93;;;;;;;;;;6306408;28;20028;-94
2024/01/17 02:22:26;;;;;;;3.38;1.65;;;;;;;;;;6302805;28;20020;-95
2024/01/17 02:25:26;;;;;;;3.90;1.80;;;;;;;;;;6307442;28;20495;-93
2024/01/17 02:28:28;;;;;;;3.90;1.50;;;;;;;;;;6314223;28;20036;-94
2024/01/17 02:31:28;;;;;;;3.13;1.40;;;;;;;;;;6300035;28;20123;-93
2024/01/17 02:34:28;;;;;;;4.07;1.70;;;;;;;;;;6311107;28;20077;-93
2024/01/17 02:37:29;;;;;;;2.70;1.50;;;;;;;;;;6324114;28;20038;-94
2024/01/17 02:40:30;;;;;;;2.60;1.67;;;;;;;;;;6304743;28;20437;-93
2024/01/17 02:43:30;;;;;;;2.90;1.43;;;;;;;;;;6301431;28;20342;-93
2024/01/17 02:46:30;;;;;;;3.03;1.67;;;;;;;;;;6317388;28;20036;-93
2024/01/17 02:49:31;;;;;;;5.00;1.97;;;;;;;;;;6313311;28;20085;-93
2024/01/17 02:52:31;;;;;;;4.30;1.83;;;;;;;;;;6314942;28;20397;-93
2024/01/17 02:55:32;;;;;;;3.23;1.80;;;;;;;;;;6324673;28;20604;-92
2024/01/17 02:58:32;;;;;;;2.80;1.90;;;;;;;;;;6322864;28;20544;-93
2024/01/17 03:01:33;;;;;;;3.03;1.77;;;;;;;;;;6312807;28;20539;-93
2024/01/17 03:04:33;;;;;;;2.90;1.63;;;;;;;;;;6319899;28;20024;-93
2024/01/17 03:07:33;;;;;;;2.30;1.30;;;;;;;;;;6320924;28;20048;-93
2024/01/17 03:10:35;;;;;;;3.00;1.80;;;;;;;;;;6300954;28;20028;-92
2024/01/17 03:13:35;;;;;;;2.30;1.30;;;;;;;;;;6307489;28;20020;-93
2024/01/17 03:16:36;;;;;;;2.53;1.40;;;;;;;;;;6313819;28;20051;-94
2024/01/17 03:19:36;;;;;;;2.90;1.50;;;;;;;;;;6312978;28;20043;-92
2024/01/17 03:22:37;;;;;;;4.03;1.50;;;;;;;;;;6308223;28;20108;-92
2024/01/17 03:25:40;;;;;;;3.25;1.50;;;;;;;;;;6306483;28;20219;-92
2024/01/17 03:28:43;;;;;;;3.15;1.83;;;;;;;;;;6310230;28;20032;-92
2024/01/17 03:31:43;;;;;;;3.70;1.88;;;;;;;;;;6302288;28;20036;-91
2024/01/17 03:34:43;;;;;;;3.97;1.97;;;;;;;;;;6307575;28;20027;-90
2024/01/17 03:37:44;;;;;;;3.10;1.83;;;;;;;;;;6323186;28;20040;-91
2024/01/17 03:40:44;;;;;;;3.53;1.90;;;;;;;;;;6324328;28;20008;-90
2024/01/17 03:43:45;;;;;;;2.27;1.90;;;;;;;;;;6319758;28;20118;-91
2024/01/17 03:46:45;;;;;;;3.53;2.00;;;;;;;;;;6326754;28;20024;-90
2024/01/17 03:49:45;;;;;;;5.27;2.90;;;;;;;;;;6311815;28;20028;-89
2024/01/17 03:52:46;;;;;;;3.17;2.10;;;;;;;;;;6308163;28;20024;-90
2024/01/17 03:55:46;;;;;;;3.97;2.13;;;;;;;;;;6306746;28;20074;-90
2024/01/17 03:58:46;;;;;;;3.87;2.53;;;;;;;;;;6306920;28;20020;-90
2024/01/17 04:01:47;;;;;;;4.27;2.27;;;;;;;;;;6319249;28;20111;-90
2024/01/17 04:04:47;;;;;;;3.57;2.30;;;;;;;;;;6312575;28;20027;-90
2024/01/17 04:07:47;;;;;;;4.10;2.77;;;;;;;;;;6310376;28;20085;-90
2024/01/17 04:10:48;;;;;;;4.07;2.53;;;;;;;;;;6323055;28;20407;-89
2024/01/17 04:13:48;;;;;;;5.13;2.93;;;;;;;;;;6306059;28;20457;-89
2024/01/17 04:16:48;;;;;;;3.37;2.43;;;;;;;;;;6317799;28;20024;-89
2024/01/17 04:19:49;;;;;;;6.50;3.23;;;;;;;;;;6313305;28;20031;-89
2024/01/17 04:22:49;;;;;;;7.43;3.00;;;;;;;;;;6312242;28;20111;-90
2024/01/17 04:25:49;;;;;;;5.17;2.70;;;;;;;;;;6297547;28;20029;-89
2024/01/17 04:28:51;;;;;;;4.63;2.90;;;;;;;;;;6305475;28;20044;-89
2024/01/17 04:31:52;;;;;;;4.30;2.58;;;;;;;;;;6306155;28;20472;-89
2024/01/17 04:34:53;;;;;;;5.50;3.33;;;;;;;;;;6311114;28;20513;-89
2024/01/17 04:37:53;;;;;;;5.50;3.03;;;;;;;;;;6312853;28;20032;-89
2024/01/17 04:40:53;;;;;;;5.00;2.80;;;;;;;;;;6314692;28;20498;-89
2024/01/17 04:43:56;;;;;;;5.30;2.93;;;;;;;;;;6317252;28;20051;-88
2024/01/17 04:46:57;;;;;;;5.03;3.00;;;;;;;;;;6297252;28;20068;-88
2024/01/17 04:49:57;;;;;;;4.40;2.80;;;;;;;;;;6303828;28;20056;-88
2024/01/17 04:52:58;;;;;;;5.13;2.73;;;;;;;;;;6309891;28;20025;-88
2024/01/17 04:56:02;;;;;;;4.07;2.60;;;;;;;;;;6321965;28;20016;-88
2024/01/17 04:59:02;;;;;;;5.50;3.10;;;;;;;;;;6322509;28;20035;-88
2024/01/17 05:02:03;;;;;;;4.47;3.00;;;;;;;;;;6305287;28;20024;-88
2024/01/17 05:05:04;;;;;;;5.40;3.60;;;;;;;;;;6318165;28;20028;-88
2024/01/17 05:08:04;;;;;;;4.90;3.10;;;;;;;;;;6335330;28;20436;-87
2024/01/17 05:11:05;;;;;;;4.60;3.10;;;;;;;;;;6336597;28;20063;-88
2024/01/17 05:14:05;;;;;;;5.63;2.77;;;;;;;;;;6328464;28;20070;-87
2024/01/17 05:17:06;;;;;;;4.30;2.90;;;;;;;;;;6347741;28;20023;-87
2024/01/17 05:20:07;;;;;;;3.67;2.57;;;;;;;;;;6326025;28;20027;-87
2024/01/17 05:23:07;;;;;;;5.72;3.25;;;;;;;;;;6328388;28;20403;-85
2024/01/17 05:26:07;;;;;;;6.73;2.97;;;;;;;;;;6344567;28;20028;-90
2024/01/17 05:29:08;;;;;;;6.40;2.80;;;;;;;;;;6317019;28;20058;-89
2024/01/17 05:32:09;;;;;;;5.17;3.27;;;;;;;;;;6331542;28;20039;-90
2024/01/17 05:35:09;;;;;;;5.65;3.08;;;;;;;;;;6315816;28;20031;-90
2024/01/17 05:38:09;;;;;;;4.10;2.90;;;;;;;;;;6334958;28;20035;-89
2024/01/17 05:41:10;;;;;;;5.50;2.87;;;;;;;;;;6352099;28;20089;-89
2024/01/17 05:44:10;;;;;;;4.67;2.87;;;;;;;;;;6343128;28;20028;-89
2024/01/17 05:47:10;;;;;;;4.50;3.00;;;;;;;;;;6334094;28;20024;-89
2024/01/17 05:50:11;;;;;;;3.33;2.13;;;;;;;;;;6350390;28;20106;-89
2024/01/17 05:53:12;;;;;;;4.00;2.55;;;;;;;;;;6325278;28;20027;-89
2024/01/17 05:56:12;;;;;;;5.07;2.93;;;;;;;;;;6333844;28;20487;-88
2024/01/17 05:59:13;;;;;;;5.57;2.77;;;;;;;;;;6348815;28;20113;-88
2024/01/17 06:02:13;;;;;;;5.63;2.83;;;;;;;;;;6321289;28;20375;-88
2024/01/17 06:05:15;;;;;;;5.43;2.83;;;;;;;;;;6342958;28;20053;-89
2024/01/17 06:08:16;;;;;;;6.05;3.20;;;;;;;;;;6341409;28;20072;-88
2024/01/17 06:11:16;;;;;;;4.20;2.57;;;;;;;;;;6342378;28;20034;-90
2024/01/17 06:14:17;;;;;;;5.23;2.83;;;;;;;;;;6313848;28;20026;-88
2024/01/17 06:17:17;;;;;;;5.57;3.47;;;;;;;;;;6344089;28;20460;-87
2024/01/17 06:20:17;;;;;;;5.40;3.00;;;;;;;;;;6333310;28;20016;-87
2024/01/17 06:23:17;;;;;;;5.53;2.97;;;;;;;;;;6331204;28;20026;-88
2024/01/17 06:26:18;;;;;;;4.90;3.10;;;;;;;;;;6332384;28;20518;-87
2024/01/17 06:29:18;;;;;;;6.37;3.47;;;;;;;;;;6333637;28;20357;-87
2024/01/17 06:32:19;;;;;;;5.13;3.20;;;;;;;;;;6334345;28;20020;-85
2024/01/17 06:35:19;;;;;;;6.23;3.40;;;;;;;;;;6306912;28;20027;-87
2024/01/17 06:38:19;;;;;;;4.77;3.27;;;;;;;;;;6322752;28;20020;-86
2024/01/17 06:41:20;;;;;;;5.07;3.13;;;;;;;;;;6349656;28;20399;-87
2024/01/17 06:44:20;;;;;;;5.57;3.33;;;;;;;;;;6315198;28;20425;-87
2024/01/17 06:47:21;;;;;;;6.07;3.10;;;;;;;;;;6331982;28;20040;-84
2024/01/17 06:50:21;;;;;;;4.93;3.23;;;;;;;;;;6349995;28;20490;-83
2024/01/17 06:53:22;;;;;;;5.67;2.70;;;;;;;;;;6314664;28;20051;-82
2024/01/17 06:56:22;;;;;;;5.35;3.10;;;;;;;;;;6313233;28;20027;-84
2024/01/17 06:59:22;;;;;;;5.67;3.30;;;;;;;;;;6337508;28;20114;-85
2024/01/17 07:02:23;;;;;;;6.20;3.00;;;;;;;;;;6339215;28;20044;-86
2024/01/17 07:05:23;;;;;;;4.70;3.33;;;;;;;;;;6319005;28;20478;-85
2024/01/17 07:08:23;;;;;;;5.73;2.60;;;;;;;;;;6338583;28;20462;-80
2024/01/17 07:11:23;;;;;;;6.07;3.23;;;;;;;;;;6306010;28;20055;-83
2024/01/17 07:14:24;;;;;;;4.53;2.70;;;;;;;;;;6334519;28;20070;-86
2024/01/17 07:17:24;;;;;;;6.13;3.50;;;;;;;;;;6342025;28;20019;-86
2024/01/17 07:20:24;;;;;;;6.47;3.47;;;;;;;;;;6347437;28;20027;-85
2024/01/17 07:23:25;;;;;;;5.87;2.83;;;;;;;;;;6306333;28;20124;-86
2024/01/17 07:26:25;;;;;;;6.30;3.30;;;;;;;;;;6313888;28;20050;-84
2024/01/17 07:29:26;;;;;;;5.07;3.10;;;;;;;;;;6314508;28;20062;-84
2024/01/17 07:32:26;;;;;;;4.90;3.40;;;;;;;;;;6312053;28;20024;-83
2024/01/17 07:35:26;;;;;;;6.03;2.90;;;;;;;;;;6336742;28;20023;-79
2024/01/17 07:38:26;;;;;;;7.00;3.67;;;;;;;;;;6315614;28;20038;-86
2024/01/17 07:41:28;;;;;;;5.00;3.10;;;;;;;;;;6321364;28;20058;-86
2024/01/17 07:44:30;;;;;;;6.53;3.42;;;;;;;;;;6338242;28;20084;-86
2024/01/17 07:47:30;;;;;;;6.13;3.53;;;;;;;;;;6308405;28;20049;-84
2024/01/17 07:50:30;;;;;;;4.47;2.90;;;;;;;;;;6347074;28;20388;-86
2024/01/17 07:53:31;;;;;;;5.30;3.07;;;;;;;;;;6349363;28;20020;-87
2024/01/17 07:56:31;;;;;;;5.20;3.20;;;;;;;;;;6327793;28;20168;-81
2024/01/17 07:59:31;;;;;;;5.90;3.40;;;;;;;;;;6333547;28;20388;-83
2024/01/17 08:02:32;;;;;;;5.77;3.47;;;;;;;;;;6345130;28;20022;-81
2024/01/17 08:05:33;;;;;;;4.40;3.33;;;;;;;;;;6319343;28;20051;-83
2024/01/17 08:08:33;;;;;;;6.80;3.42;;;;;;;;;;6340051;28;20028;-84
2024/01/17 08:11:33;;;;;;;6.83;3.47;;;;;;;;;;6340642;28;20024;-83
2024/01/17 08:14:34;;;;;;;5.87;3.30;;;;;;;;;;6326350;28;20023;-83
2024/01/17 08:17:35;;;;;;;7.10;3.70;;;;;;;;;;6333556;28;20109;-83
2024/01/17 08:20:36;;;;;;;6.87;3.47;;;;;;;;;;6321572;28;20036;-82
2024/01/17 08:23:36;;;;;;;6.40;3.50;;;;;;;;;;6335543;28;20031;-83
2024/01/17 08:26:38;;;;;;;5.57;3.47;;;;;;;;;;6322212;28;20032;-82
2024/01/17 08:29:38;;;;;;;6.60;3.40;;;;;;;;;;6334810;28;20072;-82
2024/01/17 08:32:39;;;;;;;6.53;3.53;;;;;;;;;;6334240;28;20480;-82
2024/01/17 08:35:39;;;;;;;6.13;3.63;;;;;;;;;;6340838;28;20019;-82
2024/01/17 08:38:40;;;;;;;5.67;3.23;;;;;;;;;;6345756;28;20020;-81
2024/01/17 08:41:45;;;;;;;5.07;2.60;;;;;;;;;;6345257;28;20490;-82
2024/01/17 08:44:45;;;;;;;6.10;3.13;;;;;;;;;;6351548;28;20062;-82
2024/01/17 08:47:46;;;;;;;5.47;3.33;;;;;;;;;;6346288;28;20036;-82
2024/01/17 08:50:46;;;;;;;5.87;3.17;;;;;;;;;;6348769;28;20022;-81
2024/01/17 08:53:47;;;;;;;5.77;3.13;;;;;;;;;;6349281;28;20043;-82
2024/01/17 08:56:48;;;;;;;5.00;3.10;;;;;;;;;;6350768;28;20031;-81
2024/01/17 08:59:49;;;;;;;5.22;3.00;;;;;;;;;;6317661;28;20085;-82
2024/01/17 09:02:49;;;;;;;4.97;2.77;;;;;;;;;;6347535;28;20024;-81
2024/01/17 09:05:49;;;;;;;4.70;3.03;;;;;;;;;;6347722;28;20044;-81
2024/01/17 09:08:50;;;;;;;4.73;3.17;;;;;;;;;;6345625;28;20124;-81
2024/01/17 09:11:50;;;;;;;7.87;3.20;;;;;;;;;;6314191;28;20032;-81
2024/01/17 09:14:50;;;;;;;5.67;3.47;;;;;;;;;;6346768;28;20433;-80
2024/01/17 09:17:51;;;;;;;6.70;3.30;;;;;;;;;;6326077;28;20050;-81
2024/01/17 09:20:52;;;;;;;6.00;3.00;;;;;;;;;;6310458;28;20027;-81
2024/01/17 09:23:53;;;;;;;7.38;3.70;;;;;;;;;;6318800;28;20027;-81
2024/01/17 09:26:53;;;;;;;7.60;3.70;;;;;;;;;;6337187;28;20110;-80
2024/01/17 09:29:53;;;;;;;7.00;3.53;;;;;;;;;;6350339;28;20065;-81
2024/01/17 09:32:54;;;;;;;5.77;3.53;;;;;;;;;;6339895;28;20024;-80
2024/01/17 09:35:54;;;;;;;6.67;3.70;;;;;;;;;;6341273;28;20069;-80
2024/01/17 09:38:54;;;;;;;6.40;3.73;;;;;;;;;;6349515;28;20442;-80
2024/01/17 09:41:56;;;;;;;5.23;3.03;;;;;;;;;;6320395;28;20028;-80
2024/01/17 09:44:57;;;;;;;6.53;3.83;;;;;;;;;;6344796;28;20019;-81
2024/01/17 09:47:58;;;;;;;7.90;3.73;;;;;;;;;;6347456;28;20460;-80
2024/01/17 09:50:59;;;;;;;6.22;3.05;;;;;;;;;;6348427;28;20011;-80
2024/01/17 09:54:02;;;;;;;6.15;3.95;;;;;;;;;;6328526;28;20077;-80
2024/01/17 09:57:07;;;;;;;6.13;3.63;;;;;;;;;;6342702;28;21899;-80
2024/01/17 10:00:09;;;;;;;6.80;3.58;;;;;;;;;;6343334;28;20594;-80
2024/01/17 10:03:10;;;;;;;6.55;3.92;;;;;;;;;;6305848;28;20119;-80
2024/01/17 10:06:11;;;;;;;5.85;3.28;;;;;;;;;;6326591;28;20420;-80
2024/01/17 10:09:13;;;;;;;5.93;3.95;;;;;;;;;;6349706;28;20050;-79
2024/01/17 10:12:13;;;;;;;7.70;3.92;;;;;;;;;;6347735;28;20034;-80
2024/01/17 10:15:14;;;;;;;6.67;3.83;;;;;;;;;;6348228;28;20032;-81
2024/01/17 10:18:15;;;;;;;7.20;3.77;;;;;;;;;;6336750;28;20028;-80
2024/01/17 10:21:16;;;;;;;6.15;3.53;;;;;;;;;;6334794;28;20028;-79
2024/01/17 10:24:17;;;;;;;8.52;3.97;;;;;;;;;;6346269;28;20028;-80
2024/01/17 10:27:17;;;;;;;6.63;3.88;;;;;;;;;;6335183;28;20054;-80
2024/01/17 10:30:19;;;;;;;7.97;3.67;;;;;;;;;;6338243;28;20031;-82
2024/01/17 10:33:19;;;;;;;8.60;4.85;;;;;;;;;;6329521;28;20023;-81
2024/01/17 10:36:19;;;;;;;7.00;4.03;;;;;;;;;;5982471;28;10000570;-84
2024/01/17 10:39:20;;;;;;;9.53;4.07;;;;;;;;;;6348585;28;20440;-81
2024/01/17 10:42:20;;;;;;;7.30;3.80;;;;;;;;;;6342006;28;20018;-81
2024/01/17 10:45:21;;;;;;;7.57;3.80;;;;;;;;;;6340272;28;20380;-81
2024/01/17 10:48:24;;;;;;;7.27;3.80;;;;;;;;;;6340010;28;20384;-82
2024/01/17 10:51:25;;;;;;;7.25;4.00;;;;;;;;;;6310627;28;20027;-82
2024/01/17 10:54:28;;;;;;;7.33;4.17;;;;;;;;;;6329309;28;20016;-81
2024/01/17 10:57:29;;;;;;;7.22;4.15;;;;;;;;;;6341265;28;20026;-81
2024/01/17 11:00:31;;;;;;;7.57;4.13;;;;;;;;;;6346802;28;20015;-82
2024/01/17 11:03:33;;;;;;;8.27;4.30;;;;;;;;;;6347672;28;20028;-81
2024/01/17 11:06:34;;;;;;;9.02;4.43;;;;;;;;;;6326505;28;20496;-81
2024/01/17 11:09:35;;;;;;;9.95;4.38;;;;;;;;;;6347625;28;20032;-78
2024/01/17 11:12:39;;;;;;;8.30;4.23;;;;;;;;;;6339301;28;20046;-78
2024/01/17 11:15:39;;;;;;;8.73;4.28;;;;;;;;;;6343737;28;20016;-78
2024/01/17 11:18:42;;;;;;;9.07;4.37;;;;;;;;;;6330397;28;20026;-78
2024/01/17 11:21:42;;;;;;;7.90;4.35;;;;;;;;;;6339969;28;20031;-78
2024/01/17 11:24:57;;;;;;;7.30;4.43;;;;;;;;;;6338078;28;20055;-78
2024/01/17 11:28:05;;;;;;;8.02;4.72;;;;;;;;;;6333726;28;20030;-79
2024/01/17 11:31:06;;;;;;;9.18;5.20;;;;;;;;;;6340409;28;20022;-82
2024/01/17 11:34:06;;;;;;;7.00;4.28;;;;;;;;;;6343686;28;20091;-80
2024/01/17 11:37:07;;;;;;;7.50;4.57;;;;;;;;;;6325595;28;20037;-80
2024/01/17 11:40:09;;;;;;;;;;;;;;;;;;6336287;28;20576;-80
2024/01/17 11:43:10;;;;;;;6.97;3.80;;;;;;;;;;6326672;28;19912;-80
2024/01/17 11:46:10;;;;;;;6.80;3.87;;;;;;;;;;6342182;28;20767;-80
2024/01/17 11:49:14;;;;;;;7.20;3.80;;;;;;;;;;6333241;28;20027;-79
2024/01/17 11:52:30;;;;;;;8.07;4.20;;;;;;;;;;6326724;28;20388;-79
2024/01/17 11:55:31;;;;;;;8.80;4.63;;;;;;;;;;6334432;28;20027;-79
2024/01/17 11:58:49;;;;;;;8.57;4.70;;;;;;;;;;6346281;28;20015;-79
2024/01/17 12:01:51;;;;;;;9.57;4.55;;;;;;;;;;6338304;28;20031;-80
2024/01/17 12:04:52;;;;;;;10.70;4.60;;;;;;;;;;6331174;28;20048;-79
2024/01/17 12:07:53;;;;;;;9.63;4.80;;;;;;;;;;6343959;28;20604;-80
2024/01/17 12:10:55;;;;;;;7.90;4.45;;;;;;;;;;6335281;28;20028;-81
2024/01/17 12:13:55;;;;;;;9.73;4.97;;;;;;;;;;6344764;28;20024;-80
2024/01/17 12:16:55;;;;;;;9.67;4.77;;;;;;;;;;6325987;28;20379;-85
2024/01/17 12:19:55;;;;;;;8.23;4.90;;;;;;;;;;6342477;28;20026;-81
2024/01/17 12:22:58;;;;;;;7.93;4.60;;;;;;;;;;6346774;28;20019;-83
2024/01/17 12:25:59;;;;;;;11.07;4.95;;;;;;;;;;6326372;28;20700;-82
2024/01/17 12:29:06;;;;;;;8.82;4.75;;;;;;;;;;6329204;28;20040;-82
2024/01/17 12:32:06;;;;;;;8.63;4.80;;;;;;;;;;6339342;28;20437;-79
2024/01/17 12:35:07;;;;;;;8.53;4.57;;;;;;;;;;6312831;28;20053;-78
2024/01/17 12:38:07;;;;;;;7.53;4.60;;;;;;;;;;6339996;28;20540;-80
2024/01/17 12:41:10;;;;;;;9.67;4.53;;;;;;;;;;6319099;28;20531;-80
2024/01/17 12:44:10;;;;;;;8.23;4.45;;;;;;;;;;6339194;28;20099;-80
2024/01/17 12:47:11;;;;;;;8.30;4.83;;;;;;;;;;6322296;28;20159;-80
2024/01/17 12:50:12;;;;;;;7.77;4.90;;;;;;;;;;6311372;28;20031;-80
2024/01/17 12:53:13;;;;;;;8.48;4.70;;;;;;;;;;6344172;28;20020;-80
2024/01/17 12:56:14;;;;;;;8.07;4.20;;;;;;;;;;6336011;28;20032;-80
2024/01/17 12:59:17;;;;;;;8.93;4.85;;;;;;;;;;6334785;28;20110;-80
2024/01/17 13:02:18;;;;;;;8.35;4.97;;;;;;;;;;6336784;28;20020;-79
2024/01/17 13:08:22;;;;;;;8.50;4.70;;;;;;;;;;6328097;28;20051;-78
2024/01/17 13:11:24;;;;;;;12.02;5.53;;;;;;;;;;6335811;28;20054;-80
2024/01/17 13:14:25;;;;;;;8.88;4.97;;;;;;;;;;6319965;28;20028;-81
2024/01/17 13:17:25;;;;;;;11.03;5.13;;;;;;;;;;6336711;28;20035;-81
2024/01/17 13:20:27;;;;;;;10.40;5.47;;;;;;;;;;6308784;28;20361;-81
2024/01/17 13:23:27;;;;;;;9.93;5.68;;;;;;;;;;6323112;28;20056;-80
2024/01/17 13:26:29;;;;;;;8.17;4.70;;;;;;;;;;6340127;28;20046;-80
2024/01/17 13:29:29;;;;;;;9.63;5.25;;;;;;;;;;6332047;28;20031;-82
2024/01/17 13:32:33;;;;;;;11.33;5.67;;;;;;;;;;6341765;28;20035;-81
2024/01/17 13:35:34;;;;;;;10.63;5.47;;;;;;;;;;6330889;28;20023;-81
2024/01/17 13:38:35;;;;;;;10.50;5.67;;;;;;;;;;6341116;28;20028;-81
2024/01/17 13:41:36;;;;;;;9.65;5.93;;;;;;;;;;6336111;28;20381;-81
2024/01/17 13:44:36;;;;;;;10.43;5.57;;;;;;;;;;6332115;28;20027;-81
2024/01/17 13:47:42;;;;;;;10.43;5.57;;;;;;;;;;6341502;28;20026;-81
2024/01/17 13:50:43;;;;;;;9.50;5.25;;;;;;;;;;6310111;28;20177;-81
2024/01/17 13:53:43;;;;;;;8.60;5.23;;;;;;;;;;6348201;28;20035;-81
2024/01/17 13:56:44;;;;;;;9.68;5.03;;;;;;;;;;6339010;28;20031;-82
2024/01/17 13:59:44;;;;;;;9.37;4.70;;;;;;;;;;6327948;28;20020;-82
2024/01/17 14:02:45;;;;;;;8.90;5.13;;;;;;;;;;6314495;28;20028;-81
2024/01/17 14:05:45;;;;;;;11.30;5.17;;;;;;;;;;6338255;28;20060;-81
2024/01/17 14:08:45;;;;;;;7.97;5.27;;;;;;;;;;6332682;28;20031;-81
2024/01/17 14:11:48;;;;;;;11.40;5.30;;;;;;;;;;6325560;28;20476;-81
2024/01/17 14:14:48;;;;;;;10.52;5.03;;;;;;;;;;6347448;28;20494;-81
2024/01/17 14:17:48;;;;;;;9.27;5.37;;;;;;;;;;6333173;28;20032;-80
2024/01/17 14:20:49;;;;;;;10.20;5.50;;;;;;;;;;6329696;28;20024;-80
2024/01/17 14:23:49;;;;;;;9.17;5.07;;;;;;;;;;6336407;28;20481;-81
2024/01/17 14:26:49;;;;;;;11.50;5.07;;;;;;;;;;6345771;28;20032;-81
2024/01/17 14:29:50;;;;;;;9.80;5.37;;;;;;;;;;6320256;28;20028;-81
2024/01/17 14:32:50;;;;;;;10.87;5.53;;;;;;;;;;6337321;28;20092;-81
2024/01/17 14:35:50;;;;;;;11.27;5.23;;;;;;;;;;6341116;28;20098;-81
2024/01/17 14:38:51;;;;;;;8.27;4.93;;;;;;;;;;6314299;28;20059;-82
2024/01/17 14:41:51;;;;;;;10.43;5.00;;;;;;;;;;6330721;28;20020;-81
2024/01/17 14:44:51;;;;;;;8.57;5.00;;;;;;;;;;6337921;28;20035;-81
2024/01/17 14:47:51;;;;;;;9.50;4.63;;;;;;;;;;6339644;28;20077;-81
2024/01/17 14:50:52;;;;;;;8.80;5.60;;;;;;;;;;6330402;28;20439;-81
2024/01/17 14:53:52;;;;;;;9.53;5.07;;;;;;;;;;6344993;28;20443;-81
2024/01/17 14:56:53;;;;;;;7.57;4.37;;;;;;;;;;6339636;28;20492;-81
2024/01/17 14:59:54;;;;;;;7.55;4.55;;;;;;;;;;6318007;28;20494;-81
2024/01/17 15:02:55;;;;;;;9.32;5.03;;;;;;;;;;6316210;28;20051;-81
2024/01/17 15:05:55;;;;;;;9.82;5.40;;;;;;;;;;6326724;28;20046;-81
2024/01/17 15:08:56;;;;;;;9.13;5.43;;;;;;;;;;6320796;28;20047;-81
2024/01/17 15:11:56;;;;;;;8.33;5.20;;;;;;;;;;6344077;28;20028;-81
2024/01/17 15:14:56;;;;;;;8.97;5.17;;;;;;;;;;6332973;28;20109;-81
2024/01/17 15:17:57;;;;;;;9.57;5.30;;;;;;;;;;6338388;28;20028;-81
2024/01/17 15:20:57;;;;;;;8.80;5.50;;;;;;;;;;6333943;28;20023;-81
2024/01/17 15:23:57;;;;;;;8.17;4.80;;;;;;;;;;6333497;28;20020;-81
2024/01/17 15:26:58;;;;;;;9.07;5.53;;;;;;;;;;6326631;28;20027;-81
2024/01/17 15:29:58;;;;;;;10.07;5.03;;;;;;;;;;6330129;28;20457;-81
2024/01/17 15:32:58;;;;;;;10.77;5.27;;;;;;;;;;6325224;28;20016;-81
2024/01/17 15:35:58;;;;;;;10.00;5.27;;;;;;;;;;6333734;28;20034;-81
2024/01/17 15:38:59;;;;;;;10.97;5.30;;;;;;;;;;6346787;28;20064;-81
2024/01/17 15:41:59;;;;;;;9.47;5.27;;;;;;;;;;6331103;28;20058;-81
2024/01/17 15:45:00;;;;;;;10.37;5.50;;;;;;;;;;6314527;28;20530;-81
2024/01/17 15:48:00;;;;;;;7.80;5.17;;;;;;;;;;6311684;28;20032;-81
2024/01/17 15:51:01;;;;;;;9.47;5.23;;;;;;;;;;6309912;28;20104;-81
2024/01/17 15:54:02;;;;;;;;;;;;;;;;;;6343644;28;20036;-82
2024/01/17 15:57:02;;;;;;;6.88;3.75;;;;;;;;;;6319408;28;19964;-81
2024/01/17 16:00:03;;;;;;;10.77;5.70;;;;;;;;;;6334067;28;20277;-81
2024/01/17 16:03:04;;;;;;;14.03;5.80;;;;;;;;;;6315763;28;20034;-82
2024/01/17 16:06:05;;;;;;;10.02;5.60;;;;;;;;;;6305415;28;20130;-81
2024/01/17 16:09:11;;;;;;;12.25;6.72;;;;;;;;;;6335537;28;20032;-82
2024/01/17 16:12:11;;;;;;;9.93;5.88;;;;;;;;;;6343648;28;20030;-81
2024/01/17 16:15:15;;;;;;;9.83;5.70;;;;;;;;;;6335152;28;20011;-81
2024/01/17 16:18:15;;;;;;;11.15;6.03;;;;;;;;;;6311456;28;20460;-81
2024/01/17 16:21:15;;;;;;;10.07;6.07;;;;;;;;;;6343411;28;20023;-81
2024/01/17 16:24:16;;;;;;;11.47;5.90;;;;;;;;;;6334076;28;20016;-81
2024/01/17 16:27:16;;;;;;;9.87;5.33;;;;;;;;;;6344809;28;20027;-81
2024/01/17 16:30:16;;;;;;;10.17;5.70;;;;;;;;;;6330187;28;20449;-81
2024/01/17 16:33:16;;;;;;;10.37;6.07;;;;;;;;;;6333587;28;20491;-81
2024/01/17 16:36:17;;;;;;;9.83;6.03;;;;;;;;;;6334954;28;20020;-81
2024/01/17 16:39:17;;;;;;;9.77;5.73;;;;;;;;;;6338318;28;20024;-81
2024/01/17 16:42:18;;;;;;;8.60;5.73;;;;;;;;;;6324409;28;20142;-82
2024/01/17 16:45:18;;;;;;;11.40;5.83;;;;;;;;;;6329796;28;20028;-80
2024/01/17 16:48:18;;;;;;;8.30;5.30;;;;;;;;;;6332965;28;20031;-79
2024/01/17 16:51:18;;;;;;;8.60;5.53;;;;;;;;;;6334670;28;20379;-79
2024/01/17 16:54:19;;;;;;;10.57;5.67;;;;;;;;;;6332654;28;20372;-83
2024/01/17 16:57:19;;;;;;;11.00;5.63;;;;;;;;;;6338630;28;20452;-82
2024/01/17 17:00:19;;;;;;;8.87;5.43;;;;;;;;;;6336713;28;20031;-82
2024/01/17 17:03:20;;;;;;;10.50;5.47;;;;;;;;;;6335951;28;20806;-83
2024/01/17 17:06:21;;;;;;;9.97;5.57;;;;;;;;;;6335139;28;20051;-83
2024/01/17 17:09:21;;;;;;;8.30;4.80;;;;;;;;;;6338472;28;20035;-83
2024/01/17 17:12:22;;;;;;;9.37;5.63;;;;;;;;;;6335805;28;20027;-83
2024/01/17 17:15:22;;;;;;;10.50;5.23;;;;;;;;;;6336930;28;20038;-83
2024/01/17 17:18:22;;;;;;;8.67;5.33;;;;;;;;;;6328756;28;20036;-82
2024/01/17 17:21:23;;;;;;;9.00;5.57;;;;;;;;;;6329823;28;20426;-87
2024/01/17 17:24:24;;;;;;;13.68;6.68;;;;;;;;;;6315872;28;20023;-85
2024/01/17 17:27:24;;;;;;;9.73;5.70;;;;;;;;;;6330991;28;20039;-84
2024/01/17 17:30:25;;;;;;;10.13;5.73;;;;;;;;;;6329570;28;20420;-81
2024/01/17 17:33:25;;;;;;;10.10;5.63;;;;;;;;;;6323829;28;20020;-83
2024/01/17 17:36:25;;;;;;;10.47;5.70;;;;;;;;;;6324999;28;20028;-83
2024/01/17 17:39:26;;;;;;;10.00;5.30;;;;;;;;;;6331521;28;20460;-85
2024/01/17 17:42:26;;;;;;;8.33;4.70;;;;;;;;;;6328514;28;20069;-85
2024/01/17 17:45:26;;;;;;;9.03;5.27;;;;;;;;;;6333637;28;20024;-84
2024/01/17 17:48:26;;;;;;;8.57;4.93;;;;;;;;;;6337009;28;20039;-85
2024/01/17 17:51:27;;;;;;;10.67;5.47;;;;;;;;;;6331619;28;20057;-82
2024/01/17 17:54:27;;;;;;;10.10;5.93;;;;;;;;;;6332335;28;20484;-89
2024/01/17 17:57:29;;;;;;;8.10;4.60;;;;;;;;;;6316744;28;20031;-87
2024/01/17 18:00:29;;;;;;;;;;;;;;;;;;6333943;28;20476;-88
2024/01/17 18:03:29;;;;;;;8.00;4.63;;;;;;;;;;6324789;28;20708;-87
2024/01/17 18:06:29;;;;;;;8.87;5.57;;;;;;;;;;6324883;28;20293;-88